sensor_id;sensor_type;location;lat;lon;timestamp;P1;durP1;ratioP1;P2;durP2;ratioP2
7531;SDS011;3807;49.030;8.714;2022-08-23T00:01:04;2.72;;;1.90;;
7531;SDS011;3807;49.030;8.714;2022-08-23T00:03:31;3.78;;;2.10;;
7531;SDS011;3807;49.030;8.714;2022-08-23T00:05:56;5.60;;;2.22;;
7531;SDS011;3807;49.030;8.714;2022-08-23T00:08:22;4.25;;;2.30;;
7531;SDS011;3807;49.030;8.714;2022-08-23T00:10:48;6.70;;;2.17;;
7531;SDS011;3807;49.030;8.714;2022-08-23T00:13:13;5.37;;;2.12;;
7531;SDS011;3807;49.030;8.714;2022-08-23T00:15:39;3.72;;;2.33;;
7531;SDS011;3807;49.030;8.714;2022-08-23T00:18:04;3.35;;;2.42;;
7531;SDS011;3807;49.030;8.714;2022-08-23T00:20:29;3.72;;;2.50;;
7531;SDS011;3807;49.030;8.714;2022-08-23T00:22:55;4.95;;;2.58;;
7531;SDS011;3807;49.030;8.714;2022-08-23T00:25:21;3.92;;;2.05;;
7531;SDS011;3807;49.030;8.714;2022-08-23T00:27:47;6.07;;;2.78;;
7531;SDS011;3807;49.030;8.714;2022-08-23T00:30:13;3.65;;;2.35;;
7531;SDS011;3807;49.030;8.714;2022-08-23T00:32:40;4.05;;;2.22;;
7531;SDS011;3807;49.030;8.714;2022-08-23T00:35:06;3.20;;;2.05;;
7531;SDS011;3807;49.030;8.714;2022-08-23T00:37:33;5.40;;;2.60;;
7531;SDS011;3807;49.030;8.714;2022-08-23T00:40:00;5.82;;;1.98;;
7531;SDS011;3807;49.030;8.714;2022-08-23T00:48:29;3.33;;;2.28;;
7531;SDS011;3807;49.030;8.714;2022-08-23T00:51:29;4.03;;;2.22;;
7531;SDS011;3807;49.030;8.714;2022-08-23T00:53:59;3.65;;;2.40;;
7531;SDS011;3807;49.030;8.714;2022-08-23T00:56:26;6.00;;;2.53;;
7531;SDS011;3807;49.030;8.714;2022-08-23T00:58:54;3.95;;;2.00;;
7531;SDS011;3807;49.030;8.714;2022-08-23T01:01:20;3.92;;;2.30;;
7531;SDS011;3807;49.030;8.714;2022-08-23T01:03:50;2.30;;;2.05;;
7531;SDS011;3807;49.030;8.714;2022-08-23T01:06:20;3.20;;;2.22;;
7531;SDS011;3807;49.030;8.714;2022-08-23T01:09:00;3.87;;;2.12;;
7531;SDS011;3807;49.030;8.714;2022-08-23T01:11:37;5.90;;;2.30;;
7531;SDS011;3807;49.030;8.714;2022-08-23T01:17:04;4.57;;;2.10;;
7531;SDS011;3807;49.030;8.714;2022-08-23T01:19:38;6.35;;;2.20;;
7531;SDS011;3807;49.030;8.714;2022-08-23T01:24:36;4.75;;;2.03;;
7531;SDS011;3807;49.030;8.714;2022-08-23T01:27:02;8.98;;;2.45;;
7531;SDS011;3807;49.030;8.714;2022-08-23T01:29:28;3.35;;;2.05;;
7531;SDS011;3807;49.030;8.714;2022-08-23T01:31:53;7.57;;;2.17;;
7531;SDS011;3807;49.030;8.714;2022-08-23T01:34:21;2.25;;;1.87;;
7531;SDS011;3807;49.030;8.714;2022-08-23T01:36:50;7.05;;;2.45;;
7531;SDS011;3807;49.030;8.714;2022-08-23T01:39:16;5.35;;;2.60;;
7531;SDS011;3807;49.030;8.714;2022-08-23T01:41:42;2.72;;;2.00;;
7531;SDS011;3807;49.030;8.714;2022-08-23T01:44:08;5.65;;;2.30;;
7531;SDS011;3807;49.030;8.714;2022-08-23T01:46:33;5.90;;;2.37;;
7531;SDS011;3807;49.030;8.714;2022-08-23T01:49:00;7.15;;;2.70;;
7531;SDS011;3807;49.030;8.714;2022-08-23T01:51:28;4.12;;;2.15;;
7531;SDS011;3807;49.030;8.714;2022-08-23T01:53:53;3.08;;;2.35;;
7531;SDS011;3807;49.030;8.714;2022-08-23T01:56:18;4.03;;;2.35;;
7531;SDS011;3807;49.030;8.714;2022-08-23T01:58:45;2.62;;;2.10;;
7531;SDS011;3807;49.030;8.714;2022-08-23T02:01:11;4.30;;;2.08;;
7531;SDS011;3807;49.030;8.714;2022-08-23T02:03:37;5.03;;;2.25;;
7531;SDS011;3807;49.030;8.714;2022-08-23T02:06:03;5.53;;;2.70;;
7531;SDS011;3807;49.030;8.714;2022-08-23T02:08:28;7.53;;;2.60;;
7531;SDS011;3807;49.030;8.714;2022-08-23T02:11:14;3.40;;;2.62;;
7531;SDS011;3807;49.030;8.714;2022-08-23T02:13:41;4.20;;;2.62;;
7531;SDS011;3807;49.030;8.714;2022-08-23T02:16:08;3.20;;;2.33;;
7531;SDS011;3807;49.030;8.714;2022-08-23T02:18:35;6.18;;;2.62;;
7531;SDS011;3807;49.030;8.714;2022-08-23T02:21:00;4.03;;;2.05;;
7531;SDS011;3807;49.030;8.714;2022-08-23T02:23:26;3.55;;;2.60;;
7531;SDS011;3807;49.030;8.714;2022-08-23T02:25:52;6.45;;;2.65;;
7531;SDS011;3807;49.030;8.714;2022-08-23T02:28:20;3.90;;;2.33;;
7531;SDS011;3807;49.030;8.714;2022-08-23T02:30:47;3.85;;;2.25;;
7531;SDS011;3807;49.030;8.714;2022-08-23T02:33:14;5.68;;;2.40;;
7531;SDS011;3807;49.030;8.714;2022-08-23T02:35:39;4.72;;;2.33;;
7531;SDS011;3807;49.030;8.714;2022-08-23T02:38:06;2.25;;;2.05;;
7531;SDS011;3807;49.030;8.714;2022-08-23T02:40:32;2.67;;;1.90;;
7531;SDS011;3807;49.030;8.714;2022-08-23T02:42:59;4.03;;;2.03;;
7531;SDS011;3807;49.030;8.714;2022-08-23T02:45:25;3.90;;;2.17;;
7531;SDS011;3807;49.030;8.714;2022-08-23T02:47:51;5.50;;;2.45;;
7531;SDS011;3807;49.030;8.714;2022-08-23T02:50:17;3.87;;;2.22;;
7531;SDS011;3807;49.030;8.714;2022-08-23T02:52:43;4.12;;;2.78;;
7531;SDS011;3807;49.030;8.714;2022-08-23T02:55:08;3.28;;;2.15;;
7531;SDS011;3807;49.030;8.714;2022-08-23T02:57:34;5.82;;;2.12;;
7531;SDS011;3807;49.030;8.714;2022-08-23T03:00:00;4.75;;;2.30;;
7531;SDS011;3807;49.030;8.714;2022-08-23T03:02:25;3.58;;;2.00;;
7531;SDS011;3807;49.030;8.714;2022-08-23T03:04:51;3.75;;;2.47;;
7531;SDS011;3807;49.030;8.714;2022-08-23T03:07:17;3.47;;;2.33;;
7531;SDS011;3807;49.030;8.714;2022-08-23T03:09:43;3.37;;;2.40;;
7531;SDS011;3807;49.030;8.714;2022-08-23T03:12:08;3.67;;;2.10;;
7531;SDS011;3807;49.030;8.714;2022-08-23T03:14:35;4.93;;;2.17;;
7531;SDS011;3807;49.030;8.714;2022-08-23T03:17:02;7.05;;;2.20;;
7531;SDS011;3807;49.030;8.714;2022-08-23T03:19:28;3.60;;;1.87;;
7531;SDS011;3807;49.030;8.714;2022-08-23T03:21:53;5.37;;;2.47;;
7531;SDS011;3807;49.030;8.714;2022-08-23T03:24:19;3.40;;;2.30;;
7531;SDS011;3807;49.030;8.714;2022-08-23T03:26:44;5.15;;;2.40;;
7531;SDS011;3807;49.030;8.714;2022-08-23T03:29:10;3.33;;;2.37;;
7531;SDS011;3807;49.030;8.714;2022-08-23T03:31:36;3.22;;;2.28;;
7531;SDS011;3807;49.030;8.714;2022-08-23T03:34:02;3.60;;;2.10;;
7531;SDS011;3807;49.030;8.714;2022-08-23T03:36:28;3.15;;;2.08;;
7531;SDS011;3807;49.030;8.714;2022-08-23T03:38:54;3.33;;;2.12;;
7531;SDS011;3807;49.030;8.714;2022-08-23T03:41:20;3.30;;;2.00;;
7531;SDS011;3807;49.030;8.714;2022-08-23T03:43:45;4.53;;;2.28;;
7531;SDS011;3807;49.030;8.714;2022-08-23T03:46:11;2.65;;;2.20;;
7531;SDS011;3807;49.030;8.714;2022-08-23T03:48:47;4.37;;;2.55;;
7531;SDS011;3807;49.030;8.714;2022-08-23T03:51:14;5.37;;;2.72;;
7531;SDS011;3807;49.030;8.714;2022-08-23T03:53:40;6.00;;;2.65;;
7531;SDS011;3807;49.030;8.714;2022-08-23T03:56:06;5.57;;;2.30;;
7531;SDS011;3807;49.030;8.714;2022-08-23T03:58:31;2.45;;;2.25;;
7531;SDS011;3807;49.030;8.714;2022-08-23T04:00:57;3.05;;;2.20;;
7531;SDS011;3807;49.030;8.714;2022-08-23T04:03:22;4.90;;;2.10;;
7531;SDS011;3807;49.030;8.714;2022-08-23T04:05:47;4.00;;;2.25;;
7531;SDS011;3807;49.030;8.714;2022-08-23T04:08:13;3.33;;;2.00;;
7531;SDS011;3807;49.030;8.714;2022-08-23T04:10:38;3.15;;;2.15;;
7531;SDS011;3807;49.030;8.714;2022-08-23T04:13:04;4.25;;;2.37;;
7531;SDS011;3807;49.030;8.714;2022-08-23T04:15:31;2.47;;;2.12;;
7531;SDS011;3807;49.030;8.714;2022-08-23T04:17:57;4.60;;;2.15;;
7531;SDS011;3807;49.030;8.714;2022-08-23T04:20:24;5.07;;;2.35;;
7531;SDS011;3807;49.030;8.714;2022-08-23T04:22:50;7.78;;;2.75;;
7531;SDS011;3807;49.030;8.714;2022-08-23T04:25:18;3.67;;;2.35;;
7531;SDS011;3807;49.030;8.714;2022-08-23T04:27:44;2.95;;;2.35;;
7531;SDS011;3807;49.030;8.714;2022-08-23T04:30:10;4.57;;;1.90;;
7531;SDS011;3807;49.030;8.714;2022-08-23T04:32:36;4.85;;;2.37;;
7531;SDS011;3807;49.030;8.714;2022-08-23T04:35:01;4.50;;;2.53;;
7531;SDS011;3807;49.030;8.714;2022-08-23T04:37:26;4.93;;;2.50;;
7531;SDS011;3807;49.030;8.714;2022-08-23T04:39:52;3.87;;;2.25;;
7531;SDS011;3807;49.030;8.714;2022-08-23T04:42:35;3.97;;;2.40;;
7531;SDS011;3807;49.030;8.714;2022-08-23T04:45:01;3.70;;;2.25;;
7531;SDS011;3807;49.030;8.714;2022-08-23T04:47:27;6.20;;;2.12;;
7531;SDS011;3807;49.030;8.714;2022-08-23T04:49:52;3.30;;;2.30;;
7531;SDS011;3807;49.030;8.714;2022-08-23T04:52:17;2.85;;;2.30;;
7531;SDS011;3807;49.030;8.714;2022-08-23T04:54:43;14.73;;;7.65;;
7531;SDS011;3807;49.030;8.714;2022-08-23T04:57:10;10.50;;;5.28;;
7531;SDS011;3807;49.030;8.714;2022-08-23T04:59:36;7.95;;;4.55;;
7531;SDS011;3807;49.030;8.714;2022-08-23T05:02:01;14.75;;;6.32;;
7531;SDS011;3807;49.030;8.714;2022-08-23T05:04:27;12.70;;;6.87;;
7531;SDS011;3807;49.030;8.714;2022-08-23T05:06:52;9.18;;;5.03;;
7531;SDS011;3807;49.030;8.714;2022-08-23T05:09:17;11.68;;;4.97;;
7531;SDS011;3807;49.030;8.714;2022-08-23T05:11:43;8.68;;;5.03;;
7531;SDS011;3807;49.030;8.714;2022-08-23T05:14:08;8.65;;;4.15;;
7531;SDS011;3807;49.030;8.714;2022-08-23T05:16:34;9.18;;;4.70;;
7531;SDS011;3807;49.030;8.714;2022-08-23T05:19:00;14.80;;;5.82;;
7531;SDS011;3807;49.030;8.714;2022-08-23T05:21:25;12.32;;;5.68;;
7531;SDS011;3807;49.030;8.714;2022-08-23T05:23:51;9.73;;;5.35;;
7531;SDS011;3807;49.030;8.714;2022-08-23T05:26:16;14.25;;;5.60;;
7531;SDS011;3807;49.030;8.714;2022-08-23T05:28:44;11.40;;;5.12;;
7531;SDS011;3807;49.030;8.714;2022-08-23T05:33:47;11.18;;;3.40;;
7531;SDS011;3807;49.030;8.714;2022-08-23T05:36:13;10.65;;;3.78;;
7531;SDS011;3807;49.030;8.714;2022-08-23T05:38:40;5.45;;;2.92;;
7531;SDS011;3807;49.030;8.714;2022-08-23T05:41:06;5.85;;;3.12;;
7531;SDS011;3807;49.030;8.714;2022-08-23T05:43:32;5.78;;;3.08;;
7531;SDS011;3807;49.030;8.714;2022-08-23T05:46:02;7.95;;;3.40;;
7531;SDS011;3807;49.030;8.714;2022-08-23T05:48:34;9.52;;;4.40;;
7531;SDS011;3807;49.030;8.714;2022-08-23T05:53:59;10.55;;;3.95;;
7531;SDS011;3807;49.030;8.714;2022-08-23T05:56:28;3.08;;;2.35;;
7531;SDS011;3807;49.030;8.714;2022-08-23T05:58:56;4.15;;;2.28;;
7531;SDS011;3807;49.030;8.714;2022-08-23T06:01:24;3.62;;;2.17;;
7531;SDS011;3807;49.030;8.714;2022-08-23T06:03:50;5.37;;;2.60;;
7531;SDS011;3807;49.030;8.714;2022-08-23T06:06:16;4.12;;;2.80;;
7531;SDS011;3807;49.030;8.714;2022-08-23T06:08:43;9.52;;;2.92;;
7531;SDS011;3807;49.030;8.714;2022-08-23T06:11:16;3.30;;;2.50;;
7531;SDS011;3807;49.030;8.714;2022-08-23T06:13:50;5.03;;;3.20;;
7531;SDS011;3807;49.030;8.714;2022-08-23T06:16:22;4.25;;;3.00;;
7531;SDS011;3807;49.030;8.714;2022-08-23T06:18:49;5.62;;;2.90;;
7531;SDS011;3807;49.030;8.714;2022-08-23T06:21:16;4.28;;;2.80;;
7531;SDS011;3807;49.030;8.714;2022-08-23T06:23:42;4.10;;;2.67;;
7531;SDS011;3807;49.030;8.714;2022-08-23T06:26:11;4.27;;;2.60;;
7531;SDS011;3807;49.030;8.714;2022-08-23T06:28:43;8.45;;;2.50;;
7531;SDS011;3807;49.030;8.714;2022-08-23T06:31:10;5.00;;;2.20;;
7531;SDS011;3807;49.030;8.714;2022-08-23T06:33:36;6.33;;;2.23;;
7531;SDS011;3807;49.030;8.714;2022-08-23T06:36:06;4.20;;;2.50;;
7531;SDS011;3807;49.030;8.714;2022-08-23T06:38:34;5.00;;;2.60;;
7531;SDS011;3807;49.030;8.714;2022-08-23T06:41:04;3.37;;;2.80;;
7531;SDS011;3807;49.030;8.714;2022-08-23T06:43:32;3.10;;;2.50;;
7531;SDS011;3807;49.030;8.714;2022-08-23T06:46:12;3.93;;;2.70;;
7531;SDS011;3807;49.030;8.714;2022-08-23T06:48:41;4.27;;;2.67;;
7531;SDS011;3807;49.030;8.714;2022-08-23T06:51:14;7.57;;;3.07;;
7531;SDS011;3807;49.030;8.714;2022-08-23T06:53:44;6.07;;;2.90;;
7531;SDS011;3807;49.030;8.714;2022-08-23T06:56:10;2.77;;;2.30;;
7531;SDS011;3807;49.030;8.714;2022-08-23T06:58:35;3.83;;;2.43;;
7531;SDS011;3807;49.030;8.714;2022-08-23T07:01:08;5.47;;;2.57;;
7531;SDS011;3807;49.030;8.714;2022-08-23T07:03:44;5.47;;;2.60;;
7531;SDS011;3807;49.030;8.714;2022-08-23T07:06:10;3.87;;;2.40;;
7531;SDS011;3807;49.030;8.714;2022-08-23T07:08:35;8.23;;;2.80;;
7531;SDS011;3807;49.030;8.714;2022-08-23T07:11:01;4.97;;;2.50;;
7531;SDS011;3807;49.030;8.714;2022-08-23T07:13:27;4.27;;;2.87;;
7531;SDS011;3807;49.030;8.714;2022-08-23T07:15:56;3.67;;;2.23;;
7531;SDS011;3807;49.030;8.714;2022-08-23T07:18:23;3.97;;;2.57;;
7531;SDS011;3807;49.030;8.714;2022-08-23T07:20:53;6.97;;;2.67;;
7531;SDS011;3807;49.030;8.714;2022-08-23T07:23:19;3.45;;;2.50;;
7531;SDS011;3807;49.030;8.714;2022-08-23T07:25:45;7.65;;;2.90;;
7531;SDS011;3807;49.030;8.714;2022-08-23T07:28:10;5.20;;;2.53;;
7531;SDS011;3807;49.030;8.714;2022-08-23T07:30:36;3.03;;;2.53;;
7531;SDS011;3807;49.030;8.714;2022-08-23T07:33:01;3.47;;;2.40;;
7531;SDS011;3807;49.030;8.714;2022-08-23T07:35:26;5.57;;;3.00;;
7531;SDS011;3807;49.030;8.714;2022-08-23T07:37:52;5.47;;;2.57;;
7531;SDS011;3807;49.030;8.714;2022-08-23T07:40:17;7.27;;;2.90;;
7531;SDS011;3807;49.030;8.714;2022-08-23T07:42:43;4.20;;;2.47;;
7531;SDS011;3807;49.030;8.714;2022-08-23T07:45:08;5.23;;;2.60;;
7531;SDS011;3807;49.030;8.714;2022-08-23T07:47:34;3.85;;;2.60;;
7531;SDS011;3807;49.030;8.714;2022-08-23T07:49:59;3.53;;;2.50;;
7531;SDS011;3807;49.030;8.714;2022-08-23T07:52:25;7.70;;;2.90;;
7531;SDS011;3807;49.030;8.714;2022-08-23T07:54:50;5.87;;;2.70;;
7531;SDS011;3807;49.030;8.714;2022-08-23T07:57:16;4.32;;;2.67;;
7531;SDS011;3807;49.030;8.714;2022-08-23T07:59:41;5.37;;;2.70;;
7531;SDS011;3807;49.030;8.714;2022-08-23T08:02:07;4.78;;;2.72;;
7531;SDS011;3807;49.030;8.714;2022-08-23T08:04:32;3.92;;;2.20;;
7531;SDS011;3807;49.030;8.714;2022-08-23T08:06:57;5.57;;;2.80;;
7531;SDS011;3807;49.030;8.714;2022-08-23T08:09:24;6.83;;;2.60;;
7531;SDS011;3807;49.030;8.714;2022-08-23T08:11:50;3.13;;;2.30;;
7531;SDS011;3807;49.030;8.714;2022-08-23T08:14:16;6.90;;;2.40;;
7531;SDS011;3807;49.030;8.714;2022-08-23T08:16:46;3.87;;;2.40;;
7531;SDS011;3807;49.030;8.714;2022-08-23T08:19:14;3.23;;;2.17;;
7531;SDS011;3807;49.030;8.714;2022-08-23T08:21:41;5.12;;;2.67;;
7531;SDS011;3807;49.030;8.714;2022-08-23T08:24:10;4.32;;;2.80;;
7531;SDS011;3807;49.030;8.714;2022-08-23T08:26:39;4.73;;;2.83;;
7531;SDS011;3807;49.030;8.714;2022-08-23T08:29:06;6.80;;;2.90;;
7531;SDS011;3807;49.030;8.714;2022-08-23T08:31:31;6.65;;;2.80;;
7531;SDS011;3807;49.030;8.714;2022-08-23T08:33:58;6.45;;;2.72;;
7531;SDS011;3807;49.030;8.714;2022-08-23T08:36:31;5.90;;;2.53;;
7531;SDS011;3807;49.030;8.714;2022-08-23T08:39:00;5.07;;;2.77;;
7531;SDS011;3807;49.030;8.714;2022-08-23T08:44:42;4.85;;;2.50;;
7531;SDS011;3807;49.030;8.714;2022-08-23T08:47:13;4.73;;;2.90;;
7531;SDS011;3807;49.030;8.714;2022-08-23T08:49:49;3.47;;;2.47;;
7531;SDS011;3807;49.030;8.714;2022-08-23T08:52:21;7.07;;;2.67;;
7531;SDS011;3807;49.030;8.714;2022-08-23T08:54:49;4.75;;;2.50;;
7531;SDS011;3807;49.030;8.714;2022-08-23T08:57:24;6.25;;;2.65;;
7531;SDS011;3807;49.030;8.714;2022-08-23T08:59:51;3.80;;;2.20;;
7531;SDS011;3807;49.030;8.714;2022-08-23T09:02:39;7.00;;;3.28;;
7531;SDS011;3807;49.030;8.714;2022-08-23T09:05:10;4.25;;;2.65;;
7531;SDS011;3807;49.030;8.714;2022-08-23T09:07:43;8.77;;;2.78;;
7531;SDS011;3807;49.030;8.714;2022-08-23T09:18:11;6.90;;;2.75;;
7531;SDS011;3807;49.030;8.714;2022-08-23T09:20:39;5.35;;;3.05;;
7531;SDS011;3807;49.030;8.714;2022-08-23T09:23:15;8.23;;;3.30;;
7531;SDS011;3807;49.030;8.714;2022-08-23T09:25:53;7.55;;;2.70;;
7531;SDS011;3807;49.030;8.714;2022-08-23T09:28:20;3.90;;;2.62;;
7531;SDS011;3807;49.030;8.714;2022-08-23T09:30:53;5.28;;;2.83;;
7531;SDS011;3807;49.030;8.714;2022-08-23T09:33:24;7.47;;;2.83;;
7531;SDS011;3807;49.030;8.714;2022-08-23T09:36:15;9.18;;;2.72;;
7531;SDS011;3807;49.030;8.714;2022-08-23T09:38:55;6.03;;;2.70;;
7531;SDS011;3807;49.030;8.714;2022-08-23T09:41:26;6.28;;;2.50;;
7531;SDS011;3807;49.030;8.714;2022-08-23T09:43:56;6.32;;;2.70;;
7531;SDS011;3807;49.030;8.714;2022-08-23T09:46:33;3.20;;;2.20;;
7531;SDS011;3807;49.030;8.714;2022-08-23T09:49:21;8.23;;;2.80;;
7531;SDS011;3807;49.030;8.714;2022-08-23T09:51:54;7.30;;;2.78;;
7531;SDS011;3807;49.030;8.714;2022-08-23T09:54:29;6.93;;;2.62;;
7531;SDS011;3807;49.030;8.714;2022-08-23T09:56:58;8.02;;;2.50;;
7531;SDS011;3807;49.030;8.714;2022-08-23T10:01:56;4.25;;;2.62;;
7531;SDS011;3807;49.030;8.714;2022-08-23T10:04:29;9.02;;;2.80;;
7531;SDS011;3807;49.030;8.714;2022-08-23T10:07:00;7.03;;;2.75;;
7531;SDS011;3807;49.030;8.714;2022-08-23T10:09:47;5.05;;;2.30;;
7531;SDS011;3807;49.030;8.714;2022-08-23T10:12:12;5.95;;;2.33;;
7531;SDS011;3807;49.030;8.714;2022-08-23T10:14:38;4.97;;;2.28;;
7531;SDS011;3807;49.030;8.714;2022-08-23T10:17:26;5.97;;;2.60;;
7531;SDS011;3807;49.030;8.714;2022-08-23T10:20:18;3.67;;;2.58;;
7531;SDS011;3807;49.030;8.714;2022-08-23T10:23:34;5.60;;;2.65;;
7531;SDS011;3807;49.030;8.714;2022-08-23T10:26:18;3.55;;;2.28;;
7531;SDS011;3807;49.030;8.714;2022-08-23T10:28:57;2.87;;;2.33;;
7531;SDS011;3807;49.030;8.714;2022-08-23T10:31:54;3.83;;;2.20;;
7531;SDS011;3807;49.030;8.714;2022-08-23T10:37:07;4.07;;;2.40;;
7531;SDS011;3807;49.030;8.714;2022-08-23T10:39:35;3.75;;;2.10;;
7531;SDS011;3807;49.030;8.714;2022-08-23T10:42:10;3.22;;;2.87;;
7531;SDS011;3807;49.030;8.714;2022-08-23T10:45:04;5.55;;;2.15;;
7531;SDS011;3807;49.030;8.714;2022-08-23T10:50:25;5.22;;;1.77;;
7531;SDS011;3807;49.030;8.714;2022-08-23T10:53:13;3.60;;;2.10;;
7531;SDS011;3807;49.030;8.714;2022-08-23T10:55:56;7.03;;;1.95;;
7531;SDS011;3807;49.030;8.714;2022-08-23T11:01:04;3.17;;;1.95;;
7531;SDS011;3807;49.030;8.714;2022-08-23T11:11:43;4.62;;;2.15;;
7531;SDS011;3807;49.030;8.714;2022-08-23T11:14:35;5.70;;;1.87;;
7531;SDS011;3807;49.030;8.714;2022-08-23T11:17:08;5.50;;;2.47;;
7531;SDS011;3807;49.030;8.714;2022-08-23T11:19:52;2.47;;;1.77;;
7531;SDS011;3807;49.030;8.714;2022-08-23T11:24:57;2.45;;;1.30;;
7531;SDS011;3807;49.030;8.714;2022-08-23T11:29:54;3.35;;;2.00;;
7531;SDS011;3807;49.030;8.714;2022-08-23T11:32:29;2.03;;;1.67;;
7531;SDS011;3807;49.030;8.714;2022-08-23T11:35:36;2.95;;;1.85;;
7531;SDS011;3807;49.030;8.714;2022-08-23T11:37:59;2.97;;;1.83;;
7531;SDS011;3807;49.030;8.714;2022-08-23T11:43:11;3.15;;;1.75;;
7531;SDS011;3807;49.030;8.714;2022-08-23T11:45:46;3.87;;;1.83;;
7531;SDS011;3807;49.030;8.714;2022-08-23T11:56:09;6.70;;;1.50;;
7531;SDS011;3807;49.030;8.714;2022-08-23T11:59:02;2.78;;;1.62;;
7531;SDS011;3807;49.030;8.714;2022-08-23T12:01:31;6.07;;;1.87;;
7531;SDS011;3807;49.030;8.714;2022-08-23T12:04:02;4.65;;;1.80;;
7531;SDS011;3807;49.030;8.714;2022-08-23T12:16:57;2.87;;;1.65;;
7531;SDS011;3807;49.030;8.714;2022-08-23T12:19:30;4.03;;;1.90;;
7531;SDS011;3807;49.030;8.714;2022-08-23T12:22:13;3.10;;;1.62;;
7531;SDS011;3807;49.030;8.714;2022-08-23T12:24:43;3.85;;;1.52;;
7531;SDS011;3807;49.030;8.714;2022-08-23T12:30:03;3.85;;;1.37;;
7531;SDS011;3807;49.030;8.714;2022-08-23T12:35:27;2.33;;;1.40;;
7531;SDS011;3807;49.030;8.714;2022-08-23T12:38:07;3.35;;;1.80;;
7531;SDS011;3807;49.030;8.714;2022-08-23T12:40:43;4.07;;;1.67;;
7531;SDS011;3807;49.030;8.714;2022-08-23T12:43:21;3.42;;;1.77;;
7531;SDS011;3807;49.030;8.714;2022-08-23T12:45:54;2.53;;;1.80;;
7531;SDS011;3807;49.030;8.714;2022-08-23T12:48:26;3.85;;;1.60;;
7531;SDS011;3807;49.030;8.714;2022-08-23T12:50:58;2.28;;;1.70;;
7531;SDS011;3807;49.030;8.714;2022-08-23T12:53:34;2.65;;;1.50;;
7531;SDS011;3807;49.030;8.714;2022-08-23T12:56:06;5.15;;;1.85;;
7531;SDS011;3807;49.030;8.714;2022-08-23T12:58:36;5.60;;;1.65;;
7531;SDS011;3807;49.030;8.714;2022-08-23T13:01:04;2.60;;;1.40;;
7531;SDS011;3807;49.030;8.714;2022-08-23T13:03:36;2.25;;;1.50;;
7531;SDS011;3807;49.030;8.714;2022-08-23T13:06:05;5.87;;;2.08;;
7531;SDS011;3807;49.030;8.714;2022-08-23T13:08:38;2.65;;;1.85;;
7531;SDS011;3807;49.030;8.714;2022-08-23T13:11:11;4.18;;;1.50;;
7531;SDS011;3807;49.030;8.714;2022-08-23T13:13:40;3.60;;;1.67;;
7531;SDS011;3807;49.030;8.714;2022-08-23T13:19:15;4.53;;;1.73;;
7531;SDS011;3807;49.030;8.714;2022-08-23T13:21:46;4.05;;;1.70;;
7531;SDS011;3807;49.030;8.714;2022-08-23T13:24:31;1.87;;;1.65;;
7531;SDS011;3807;49.030;8.714;2022-08-23T13:37:49;2.15;;;1.55;;
7531;SDS011;3807;49.030;8.714;2022-08-23T13:40:26;2.35;;;1.35;;
7531;SDS011;3807;49.030;8.714;2022-08-23T13:43:07;1.80;;;1.40;;
7531;SDS011;3807;49.030;8.714;2022-08-23T13:45:42;7.25;;;1.58;;
7531;SDS011;3807;49.030;8.714;2022-08-23T13:48:11;1.70;;;1.25;;
7531;SDS011;3807;49.030;8.714;2022-08-23T13:50:40;2.53;;;1.58;;
7531;SDS011;3807;49.030;8.714;2022-08-23T13:53:06;2.83;;;1.25;;
7531;SDS011;3807;49.030;8.714;2022-08-23T13:55:43;5.22;;;1.40;;
7531;SDS011;3807;49.030;8.714;2022-08-23T13:58:13;2.42;;;1.62;;
7531;SDS011;3807;49.030;8.714;2022-08-23T14:00:48;3.50;;;1.30;;
7531;SDS011;3807;49.030;8.714;2022-08-23T14:03:14;3.17;;;1.42;;
7531;SDS011;3807;49.030;8.714;2022-08-23T14:05:39;2.75;;;1.40;;
7531;SDS011;3807;49.030;8.714;2022-08-23T14:08:04;6.03;;;1.80;;
7531;SDS011;3807;49.030;8.714;2022-08-23T14:10:30;4.00;;;1.65;;
7531;SDS011;3807;49.030;8.714;2022-08-23T14:12:55;4.12;;;1.33;;
7531;SDS011;3807;49.030;8.714;2022-08-23T14:15:21;3.80;;;1.40;;
7531;SDS011;3807;49.030;8.714;2022-08-23T14:17:47;4.70;;;1.40;;
7531;SDS011;3807;49.030;8.714;2022-08-23T14:20:17;1.70;;;1.42;;
7531;SDS011;3807;49.030;8.714;2022-08-23T14:22:43;2.37;;;1.40;;
7531;SDS011;3807;49.030;8.714;2022-08-23T14:25:10;3.53;;;1.33;;
7531;SDS011;3807;49.030;8.714;2022-08-23T14:27:37;3.92;;;1.50;;
7531;SDS011;3807;49.030;8.714;2022-08-23T14:30:04;3.40;;;1.52;;
7531;SDS011;3807;49.030;8.714;2022-08-23T14:32:30;2.80;;;1.48;;
7531;SDS011;3807;49.030;8.714;2022-08-23T14:34:56;2.28;;;1.40;;
7531;SDS011;3807;49.030;8.714;2022-08-23T14:37:22;4.50;;;1.42;;
7531;SDS011;3807;49.030;8.714;2022-08-23T14:39:47;2.28;;;1.30;;
7531;SDS011;3807;49.030;8.714;2022-08-23T14:42:14;1.77;;;1.20;;
7531;SDS011;3807;49.030;8.714;2022-08-23T14:44:43;2.35;;;1.30;;
7531;SDS011;3807;49.030;8.714;2022-08-23T14:47:08;2.62;;;1.50;;
7531;SDS011;3807;49.030;8.714;2022-08-23T14:49:34;4.60;;;2.05;;
7531;SDS011;3807;49.030;8.714;2022-08-23T14:52:00;2.00;;;1.12;;
7531;SDS011;3807;49.030;8.714;2022-08-23T14:54:26;3.42;;;1.48;;
7531;SDS011;3807;49.030;8.714;2022-08-23T14:56:52;4.68;;;1.50;;
7531;SDS011;3807;49.030;8.714;2022-08-23T14:59:17;3.33;;;1.45;;
7531;SDS011;3807;49.030;8.714;2022-08-23T15:01:43;2.97;;;1.58;;
7531;SDS011;3807;49.030;8.714;2022-08-23T15:04:09;2.97;;;1.40;;
7531;SDS011;3807;49.030;8.714;2022-08-23T15:06:40;3.40;;;1.40;;
7531;SDS011;3807;49.030;8.714;2022-08-23T15:09:06;2.67;;;1.40;;
7531;SDS011;3807;49.030;8.714;2022-08-23T15:11:32;4.80;;;1.62;;
7531;SDS011;3807;49.030;8.714;2022-08-23T15:13:57;2.22;;;1.30;;
7531;SDS011;3807;49.030;8.714;2022-08-23T15:16:23;2.15;;;1.27;;
7531;SDS011;3807;49.030;8.714;2022-08-23T15:18:50;3.47;;;1.23;;
7531;SDS011;3807;49.030;8.714;2022-08-23T15:21:16;2.65;;;1.50;;
7531;SDS011;3807;49.030;8.714;2022-08-23T15:23:42;4.60;;;1.75;;
7531;SDS011;3807;49.030;8.714;2022-08-23T15:26:09;1.37;;;1.27;;
7531;SDS011;3807;49.030;8.714;2022-08-23T15:28:35;2.42;;;1.30;;
7531;SDS011;3807;49.030;8.714;2022-08-23T15:31:01;2.20;;;1.40;;
7531;SDS011;3807;49.030;8.714;2022-08-23T15:33:27;5.68;;;3.17;;
7531;SDS011;3807;49.030;8.714;2022-08-23T15:35:55;4.22;;;1.50;;
7531;SDS011;3807;49.030;8.714;2022-08-23T15:38:21;4.60;;;1.70;;
7531;SDS011;3807;49.030;8.714;2022-08-23T15:40:49;1.95;;;1.42;;
7531;SDS011;3807;49.030;8.714;2022-08-23T15:43:16;2.55;;;1.65;;
7531;SDS011;3807;49.030;8.714;2022-08-23T15:45:46;1.52;;;1.10;;
7531;SDS011;3807;49.030;8.714;2022-08-23T15:48:22;3.22;;;1.42;;
7531;SDS011;3807;49.030;8.714;2022-08-23T15:50:54;2.42;;;1.40;;
7531;SDS011;3807;49.030;8.714;2022-08-23T15:53:22;2.08;;;1.42;;
7531;SDS011;3807;49.030;8.714;2022-08-23T15:55:47;2.45;;;1.50;;
7531;SDS011;3807;49.030;8.714;2022-08-23T15:58:20;3.03;;;1.50;;
7531;SDS011;3807;49.030;8.714;2022-08-23T16:00:48;3.47;;;1.35;;
7531;SDS011;3807;49.030;8.714;2022-08-23T16:03:15;2.20;;;1.30;;
7531;SDS011;3807;49.030;8.714;2022-08-23T16:05:42;3.47;;;1.60;;
7531;SDS011;3807;49.030;8.714;2022-08-23T16:08:16;2.60;;;1.30;;
7531;SDS011;3807;49.030;8.714;2022-08-23T16:10:45;1.95;;;1.15;;
7531;SDS011;3807;49.030;8.714;2022-08-23T16:13:10;4.22;;;1.25;;
7531;SDS011;3807;49.030;8.714;2022-08-23T16:15:37;1.62;;;1.20;;
7531;SDS011;3807;49.030;8.714;2022-08-23T16:18:03;3.30;;;1.30;;
7531;SDS011;3807;49.030;8.714;2022-08-23T16:20:28;3.47;;;1.40;;
7531;SDS011;3807;49.030;8.714;2022-08-23T16:22:54;2.17;;;1.40;;
7531;SDS011;3807;49.030;8.714;2022-08-23T16:25:19;2.60;;;1.58;;
7531;SDS011;3807;49.030;8.714;2022-08-23T16:27:44;2.45;;;1.42;;
7531;SDS011;3807;49.030;8.714;2022-08-23T16:30:10;3.72;;;1.27;;
7531;SDS011;3807;49.030;8.714;2022-08-23T16:32:35;4.68;;;1.55;;
7531;SDS011;3807;49.030;8.714;2022-08-23T16:35:01;1.80;;;1.30;;
7531;SDS011;3807;49.030;8.714;2022-08-23T16:37:27;3.37;;;1.58;;
7531;SDS011;3807;49.030;8.714;2022-08-23T16:39:52;3.97;;;1.42;;
7531;SDS011;3807;49.030;8.714;2022-08-23T16:42:17;2.65;;;1.35;;
7531;SDS011;3807;49.030;8.714;2022-08-23T16:44:43;4.25;;;1.52;;
7531;SDS011;3807;49.030;8.714;2022-08-23T16:47:09;2.00;;;1.27;;
7531;SDS011;3807;49.030;8.714;2022-08-23T16:49:36;4.00;;;1.25;;
7531;SDS011;3807;49.030;8.714;2022-08-23T16:52:02;2.87;;;1.48;;
7531;SDS011;3807;49.030;8.714;2022-08-23T16:54:27;2.95;;;1.40;;
7531;SDS011;3807;49.030;8.714;2022-08-23T16:56:53;3.40;;;1.55;;
7531;SDS011;3807;49.030;8.714;2022-08-23T16:59:19;2.15;;;1.37;;